createdAt,value
2022-11-20T00:01:42.356Z,24.05
2022-11-20T00:04:13.395Z,26.52
2022-11-20T00:06:42.347Z,19.30
2022-11-20T00:09:13.004Z,18.70
2022-11-20T00:11:41.858Z,31.80
2022-11-20T00:14:12.853Z,17.50
2022-11-20T00:16:41.829Z,20.00
2022-11-20T00:19:10.738Z,20.80
2022-11-20T00:21:39.631Z,22.48
2022-11-20T00:24:10.979Z,23.67
2022-11-20T00:26:40.287Z,18.80
2022-11-20T00:29:11.985Z,22.58
2022-11-20T00:31:40.886Z,21.77
2022-11-20T00:34:09.809Z,21.77
2022-11-20T00:36:38.742Z,18.77
2022-11-20T00:39:07.669Z,20.73
2022-11-20T00:41:36.619Z,22.60
2022-11-20T00:44:05.627Z,31.80
2022-11-20T00:46:34.640Z,17.73
2022-11-20T00:49:03.506Z,24.50
2022-11-20T00:51:32.462Z,17.55
2022-11-20T00:54:02.121Z,16.80
2022-11-20T00:56:31.254Z,17.08
2022-11-20T00:59:03.397Z,15.98
2022-11-20T01:01:32.627Z,21.42
2022-11-20T01:04:02.943Z,24.95
2022-11-20T01:06:34.706Z,22.13
2022-11-20T01:09:06.222Z,16.98
2022-11-20T01:11:38.371Z,20.08
2022-11-20T01:14:09.542Z,26.58
2022-11-20T01:16:41.534Z,21.73
2022-11-20T01:19:17.680Z,18.10
2022-11-20T01:21:50.103Z,22.05
2022-11-20T01:24:20.991Z,25.15
2022-11-20T01:26:52.177Z,21.10
2022-11-20T01:29:26.464Z,22.35
2022-11-20T01:31:59.190Z,20.73
2022-11-20T01:34:28.190Z,23.98
2022-11-20T01:36:57.163Z,17.70
2022-11-20T01:39:28.536Z,14.45
2022-11-20T01:42:16.697Z,15.80
2022-11-20T01:45:01.169Z,20.70
2022-11-20T01:47:41.846Z,27.88
2022-11-20T01:50:25.070Z,17.27
2022-11-20T01:53:00.395Z,14.25
2022-11-20T01:55:33.426Z,18.77
2022-11-20T01:58:03.765Z,18.20
2022-11-20T02:00:32.986Z,12.60
2022-11-20T02:03:09.036Z,13.95
2022-11-20T02:06:05.471Z,17.20
2022-11-20T02:08:36.388Z,13.07
2022-11-20T02:11:05.303Z,19.02
2022-11-20T02:13:46.577Z,22.27
2022-11-20T02:16:25.129Z,15.57
2022-11-20T02:18:56.190Z,14.10
2022-11-20T02:21:30.952Z,13.68
2022-11-20T02:24:04.669Z,13.30
2022-11-20T02:26:37.768Z,16.95
2022-11-20T02:29:06.725Z,12.60
2022-11-20T02:31:42.396Z,12.68
2022-11-20T02:34:11.985Z,15.55
2022-11-20T02:36:43.708Z,12.35
2022-11-20T02:39:14.350Z,13.25
2022-11-20T02:41:43.282Z,13.70
2022-11-20T02:44:12.232Z,17.25
2022-11-20T02:46:41.102Z,12.90
2022-11-20T02:49:10.030Z,11.77
2022-11-20T02:51:39.003Z,11.23
2022-11-20T02:54:07.892Z,15.73
2022-11-20T02:56:36.907Z,33.30
2022-11-20T02:59:06.737Z,13.65
2022-11-20T03:01:35.695Z,13.48
2022-11-20T03:04:05.034Z,15.02
2022-11-20T03:06:34.273Z,18.92
2022-11-20T03:09:03.452Z,14.45
2022-11-20T03:11:32.345Z,12.68
2022-11-20T03:14:05.412Z,14.93
2022-11-20T03:16:35.022Z,15.77
2022-11-20T03:19:03.955Z,9.30
2022-11-20T03:21:32.904Z,16.65
2022-11-20T03:24:01.828Z,16.85
2022-11-20T03:26:30.995Z,18.13
2022-11-20T03:29:02.349Z,10.07
2022-11-20T03:31:34.217Z,13.00
2022-11-20T03:34:03.703Z,10.73
2022-11-20T03:36:33.234Z,12.60
2022-11-20T03:39:02.520Z,12.50
2022-11-20T03:41:33.395Z,11.75
2022-11-20T03:44:04.789Z,10.18
2022-11-20T03:46:34.078Z,9.38
2022-11-20T03:49:03.370Z,10.20
2022-11-20T03:51:34.540Z,10.43
2022-11-20T03:54:06.014Z,9.75
2022-11-20T03:56:37.483Z,14.57
2022-11-20T03:59:06.968Z,9.82
2022-11-20T04:01:39.424Z,11.40
2022-11-20T04:04:08.487Z,11.25
2022-11-20T04:06:39.962Z,7.00
2022-11-20T04:09:09.366Z,12.38
2022-11-20T04:11:41.967Z,9.07
2022-11-20T04:14:17.090Z,8.00
2022-11-20T04:16:46.148Z,10.40
2022-11-20T04:19:17.554Z,30.00
2022-11-20T04:21:47.405Z,10.10
2022-11-20T04:24:16.334Z,12.95
2022-11-20T04:26:45.288Z,8.10
2022-11-20T04:29:15.196Z,9.10
2022-11-20T04:31:44.117Z,7.30
2022-11-20T04:34:15.031Z,9.80
2022-11-20T04:36:44.498Z,10.65
2022-11-20T04:39:17.622Z,9.38
2022-11-20T04:41:46.725Z,10.88
2022-11-20T04:44:15.619Z,11.20
2022-11-20T04:46:45.118Z,8.93
2022-11-20T04:49:14.713Z,14.15
2022-11-20T04:51:43.774Z,8.27
2022-11-20T04:54:14.596Z,7.82
2022-11-20T04:56:44.108Z,8.80
2022-11-20T04:59:13.433Z,9.10
2022-11-20T05:01:42.381Z,8.85
2022-11-20T05:04:11.293Z,9.43
2022-11-20T05:06:40.181Z,8.65
2022-11-20T05:09:09.136Z,6.50
2022-11-20T05:11:38.133Z,7.65
2022-11-20T05:14:07.073Z,7.88
2022-11-20T05:16:38.142Z,12.63
2022-11-20T05:19:07.081Z,8.63
2022-11-20T05:21:36.046Z,7.88
2022-11-20T05:24:05.155Z,7.07
2022-11-20T05:26:34.347Z,13.02
2022-11-20T05:29:03.246Z,34.88
2022-11-20T05:31:32.094Z,12.23
2022-11-20T05:34:01.134Z,7.97
2022-11-20T05:36:30.058Z,7.70
2022-11-20T05:39:01.742Z,8.93
2022-11-20T05:41:31.534Z,6.63
2022-11-20T05:44:01.610Z,5.93
2022-11-20T05:46:30.674Z,7.18
2022-11-20T05:49:00.433Z,13.05
2022-11-20T05:51:30.030Z,10.50
2022-11-20T05:54:02.036Z,6.82
2022-11-20T05:56:30.976Z,5.78
2022-11-20T05:59:00.082Z,5.40
2022-11-20T06:01:29.005Z,7.70
2022-11-20T06:03:58.144Z,7.63
2022-11-20T06:06:28.302Z,7.72
2022-11-20T06:08:57.912Z,6.80
2022-11-20T06:11:27.182Z,9.00
2022-11-20T06:13:56.311Z,9.15
2022-11-20T06:16:25.293Z,8.05
2022-11-20T06:18:54.246Z,6.78
2022-11-20T06:21:24.636Z,7.90
2022-11-20T06:23:55.499Z,6.47
2022-11-20T06:26:30.817Z,7.38
2022-11-20T06:28:59.924Z,8.20
2022-11-20T06:31:29.281Z,6.63
2022-11-20T06:33:58.162Z,17.67
2022-11-20T06:36:27.037Z,8.02
2022-11-20T06:38:55.996Z,9.38
2022-11-20T06:41:25.329Z,10.45
2022-11-20T06:43:54.622Z,9.40
2022-11-20T06:46:23.788Z,10.82
2022-11-20T06:48:53.394Z,6.90
2022-11-20T06:51:23.444Z,7.20
2022-11-20T06:53:52.313Z,8.65
2022-11-20T06:56:21.437Z,6.25
2022-11-20T06:58:50.355Z,8.30
2022-11-20T07:01:19.705Z,7.80
2022-11-20T07:03:54.497Z,10.32
2022-11-20T07:06:23.565Z,8.15
2022-11-20T07:08:54.797Z,8.93
2022-11-20T07:11:23.721Z,8.75
2022-11-20T07:13:52.739Z,6.13
2022-11-20T07:16:22.213Z,8.85
2022-11-20T07:18:51.275Z,9.10
2022-11-20T07:21:20.292Z,8.57
2022-11-20T07:23:49.187Z,10.73
2022-11-20T07:26:18.142Z,8.07
2022-11-20T07:28:48.214Z,7.05
2022-11-20T07:31:19.278Z,8.60
2022-11-20T07:33:49.409Z,8.00
2022-11-20T07:36:18.369Z,7.78
2022-11-20T07:38:47.274Z,11.63
2022-11-20T07:41:16.098Z,8.80
2022-11-20T07:43:45.095Z,5.85
2022-11-20T07:46:14.058Z,9.77
2022-11-20T07:48:42.979Z,15.55
2022-11-20T07:51:11.847Z,6.88
2022-11-20T07:53:40.739Z,5.38
2022-11-20T07:56:09.869Z,6.70
2022-11-20T07:58:39.153Z,8.48
2022-11-20T08:01:09.759Z,7.18
2022-11-20T08:03:41.724Z,5.50
2022-11-20T08:06:11.421Z,10.60
2022-11-20T08:08:43.076Z,6.50
2022-11-20T08:11:30.535Z,7.90
2022-11-20T08:14:15.015Z,4.97
2022-11-20T08:16:48.976Z,7.28
2022-11-20T08:19:19.899Z,8.23
2022-11-20T08:21:49.233Z,6.55
2022-11-20T08:24:18.112Z,7.60
2022-11-20T08:26:47.319Z,11.50
2022-11-20T08:29:16.200Z,5.80
2022-11-20T08:31:45.166Z,6.25
2022-11-20T08:34:18.774Z,6.22
2022-11-20T08:36:48.250Z,4.43
2022-11-20T08:39:17.341Z,7.88
2022-11-20T08:41:46.225Z,8.93
2022-11-20T08:44:15.190Z,8.07
2022-11-20T08:46:45.751Z,11.63
2022-11-20T08:49:17.415Z,7.60
2022-11-20T08:51:47.189Z,7.35
2022-11-20T08:54:16.208Z,7.00
2022-11-20T08:56:45.032Z,11.55
2022-11-20T08:59:31.337Z,6.57
2022-11-20T09:02:02.807Z,7.07
2022-11-20T09:04:32.267Z,6.25
2022-11-20T09:07:03.248Z,7.00
2022-11-20T09:09:32.163Z,6.50
2022-11-20T09:12:01.054Z,6.13
2022-11-20T09:14:32.098Z,7.22
2022-11-20T09:17:01.073Z,4.88
2022-11-20T09:19:36.960Z,10.93
2022-11-20T09:22:05.980Z,5.68
2022-11-20T09:24:35.070Z,6.22
2022-11-20T09:27:07.883Z,7.43
2022-11-20T09:29:36.813Z,5.10
2022-11-20T09:32:05.826Z,6.85
2022-11-20T09:34:34.811Z,7.82
2022-11-20T09:37:06.385Z,5.32
2022-11-20T09:39:40.887Z,10.23
2022-11-20T09:42:21.944Z,5.53
2022-11-20T09:45:16.977Z,6.18
2022-11-20T09:48:15.170Z,10.65
2022-11-20T09:51:08.159Z,9.20
2022-11-20T09:53:43.134Z,7.63
2022-11-20T09:56:18.346Z,7.28
2022-11-20T09:59:02.023Z,9.23
2022-11-20T10:01:36.428Z,8.98
2022-11-20T10:04:16.277Z,9.45
2022-11-20T10:07:31.449Z,13.13
2022-11-20T10:09:59.550Z,7.18
2022-11-20T10:12:57.834Z,9.75
2022-11-20T10:15:45.289Z,8.13
2022-11-20T10:18:24.541Z,18.63
2022-11-20T10:21:02.363Z,9.95
2022-11-20T10:24:12.465Z,10.77
2022-11-20T10:27:09.031Z,13.40
2022-11-20T10:29:42.074Z,9.10
2022-11-20T10:32:16.145Z,9.17
2022-11-20T10:34:47.756Z,10.25
2022-11-20T10:37:27.276Z,8.32
2022-11-20T10:40:02.526Z,8.45
2022-11-20T10:42:45.238Z,8.68
2022-11-20T10:45:26.477Z,9.55
2022-11-20T10:48:00.737Z,12.02
2022-11-20T10:50:30.531Z,8.90
2022-11-20T10:53:16.200Z,9.15
2022-11-20T10:56:02.864Z,8.90
2022-11-20T10:58:46.794Z,9.90
2022-11-20T11:01:23.625Z,9.23
2022-11-20T11:03:57.577Z,8.82
2022-11-20T11:06:40.993Z,8.27
2022-11-20T11:09:18.171Z,9.85
2022-11-20T11:11:47.237Z,12.85
2022-11-20T11:14:18.205Z,16.05
2022-11-20T11:16:59.422Z,12.13
2022-11-20T11:19:28.474Z,13.02
2022-11-20T11:21:58.886Z,11.95
2022-11-20T11:24:44.439Z,13.88
2022-11-20T11:27:19.678Z,14.18
2022-11-20T11:29:49.203Z,12.73
2022-11-20T11:32:23.395Z,13.35
2022-11-20T11:35:09.199Z,16.13
2022-11-20T11:37:41.179Z,10.40
2022-11-20T11:40:23.739Z,11.05
2022-11-20T11:42:59.940Z,12.33
2022-11-20T11:45:29.833Z,12.45
2022-11-20T11:48:05.768Z,11.75
2022-11-20T11:50:35.584Z,12.23
2022-11-20T11:53:26.196Z,8.63
2022-11-20T11:56:12.186Z,13.88
2022-11-20T11:58:52.483Z,8.55
2022-11-20T12:01:43.098Z,15.05
2022-11-20T12:04:46.113Z,13.63
2022-11-20T12:07:46.424Z,11.18
2022-11-20T12:10:29.486Z,13.45
2022-11-20T12:13:06.616Z,12.60
2022-11-20T12:15:37.164Z,11.52
2022-11-20T12:18:16.065Z,11.95
2022-11-20T12:20:55.902Z,11.30
2022-11-20T12:23:36.503Z,9.10
2022-11-20T12:26:15.715Z,13.63
2022-11-20T12:29:03.598Z,13.70
2022-11-20T12:31:38.618Z,13.98
2022-11-20T12:34:32.538Z,15.55
2022-11-20T12:37:53.860Z,11.63
2022-11-20T12:40:56.121Z,11.77
2022-11-20T12:44:06.583Z,15.68
2022-11-20T12:47:16.374Z,15.98
2022-11-20T12:50:19.692Z,14.02
2022-11-20T12:52:58.721Z,25.15
2022-11-20T12:55:55.338Z,17.23
2022-11-20T12:59:00.739Z,15.52
2022-11-20T13:01:49.895Z,14.65
2022-11-20T13:04:55.656Z,16.40
2022-11-20T13:07:27.008Z,15.70
2022-11-20T13:09:57.132Z,15.40
2022-11-20T13:12:34.729Z,15.38
2022-11-20T13:15:11.309Z,13.88
2022-11-20T13:17:45.718Z,13.18
2022-11-20T13:20:20.474Z,12.63
2022-11-20T13:22:59.190Z,15.05
2022-11-20T13:25:39.793Z,14.80
2022-11-20T13:28:11.456Z,10.55
2022-11-20T13:30:52.678Z,14.00
2022-11-20T13:33:39.148Z,17.13
2022-11-20T13:36:09.708Z,14.57
2022-11-20T13:38:51.032Z,18.33
2022-11-20T13:41:30.350Z,16.77
2022-11-20T13:44:27.177Z,15.20
2022-11-20T13:46:56.238Z,18.45
2022-11-20T13:49:45.181Z,16.95
2022-11-20T13:52:32.886Z,24.60
2022-11-20T13:55:07.862Z,22.50
2022-11-20T13:57:39.532Z,18.75
2022-11-20T14:00:25.845Z,17.13
2022-11-20T14:03:25.003Z,15.13
2022-11-20T14:06:16.989Z,21.85
2022-11-20T14:08:51.716Z,29.13
2022-11-20T14:11:26.444Z,20.55
2022-11-20T14:14:03.124Z,30.17
2022-11-20T14:16:37.952Z,22.52
2022-11-20T14:19:30.854Z,21.25
2022-11-20T14:22:20.796Z,23.25
2022-11-20T14:24:51.834Z,18.83
2022-11-20T14:27:23.691Z,25.80
2022-11-20T14:29:53.824Z,31.23
2022-11-20T14:32:28.537Z,22.00
2022-11-20T14:35:00.932Z,17.48
2022-11-20T14:37:35.747Z,26.80
2022-11-20T14:40:04.929Z,24.02
2022-11-20T14:42:33.962Z,19.95
2022-11-20T14:45:03.484Z,18.80
2022-11-20T14:47:33.970Z,16.20
2022-11-20T14:50:09.706Z,18.85
2022-11-20T14:52:39.005Z,18.42
2022-11-20T14:55:08.291Z,23.45
2022-11-20T14:57:38.763Z,30.67
2022-11-20T15:00:07.992Z,18.23
2022-11-20T15:02:37.301Z,18.77
2022-11-20T15:05:06.642Z,16.98
2022-11-20T15:07:39.473Z,17.77
2022-11-20T15:10:14.608Z,16.63
2022-11-20T15:12:53.354Z,14.52
2022-11-20T15:15:29.869Z,13.00
2022-11-20T15:17:59.039Z,13.52
2022-11-20T15:20:32.682Z,21.45
2022-11-20T15:23:01.610Z,15.60
2022-11-20T15:25:30.916Z,14.55
2022-11-20T15:28:00.244Z,16.38
2022-11-20T15:30:29.119Z,15.50
2022-11-20T15:32:58.094Z,14.18
2022-11-20T15:35:27.032Z,17.23
2022-11-20T15:37:55.883Z,18.00
2022-11-20T15:40:24.804Z,13.38
2022-11-20T15:43:11.361Z,14.23
2022-11-20T15:45:52.077Z,15.15
2022-11-20T15:48:25.022Z,13.90
2022-11-20T15:51:09.545Z,17.27
2022-11-20T15:53:42.897Z,14.02
2022-11-20T15:56:15.520Z,15.47
2022-11-20T15:58:45.020Z,15.73
2022-11-20T16:01:21.936Z,15.10
2022-11-20T16:03:51.621Z,15.25
2022-11-20T16:06:20.565Z,15.23
2022-11-20T16:08:49.557Z,13.02
2022-11-20T16:11:19.611Z,14.95
2022-11-20T16:14:06.694Z,14.73
2022-11-20T16:16:38.001Z,15.80
2022-11-20T16:19:07.429Z,14.23
2022-11-20T16:21:36.922Z,16.15
2022-11-20T16:24:08.675Z,16.80
2022-11-20T16:26:38.102Z,12.35
2022-11-20T16:29:07.903Z,16.63
2022-11-20T16:31:36.955Z,17.02
2022-11-20T16:34:12.270Z,11.20
2022-11-20T16:36:48.001Z,17.95
2022-11-20T16:39:21.964Z,19.00
2022-11-20T16:41:52.584Z,12.70
2022-11-20T16:44:21.862Z,22.33
2022-11-20T16:46:51.132Z,17.27
2022-11-20T16:49:20.353Z,16.70
2022-11-20T16:51:49.244Z,15.10
2022-11-20T16:54:21.204Z,19.10
2022-11-20T16:56:52.141Z,13.88
2022-11-20T16:59:21.205Z,16.58
2022-11-20T17:01:53.331Z,17.05
2022-11-20T17:04:22.607Z,18.65
2022-11-20T17:06:51.911Z,16.02
2022-11-20T17:09:20.830Z,16.05
2022-11-20T17:11:51.023Z,13.10
2022-11-20T17:14:19.991Z,16.80
2022-11-20T17:16:49.133Z,14.55
2022-11-20T17:19:18.021Z,18.38
2022-11-20T17:21:46.894Z,17.55
2022-11-20T17:24:17.248Z,15.90
2022-11-20T17:26:46.877Z,15.55
2022-11-20T17:29:17.535Z,17.63
2022-11-20T17:31:47.478Z,21.13
2022-11-20T17:34:17.602Z,16.70
2022-11-20T17:36:47.638Z,15.45
2022-11-20T17:39:18.695Z,22.08
2022-11-20T17:42:07.714Z,21.88
2022-11-20T17:44:36.708Z,20.67
2022-11-20T17:47:05.999Z,16.15
2022-11-20T17:49:34.965Z,18.58
2022-11-20T17:52:03.898Z,16.05
2022-11-20T17:54:32.840Z,17.17
2022-11-20T17:57:20.157Z,17.42
2022-11-20T17:59:49.169Z,17.48
2022-11-20T18:02:18.077Z,15.82
2022-11-20T18:04:47.032Z,14.90
2022-11-20T18:07:15.949Z,13.65
2022-11-20T18:09:44.914Z,16.15
2022-11-20T18:12:13.830Z,15.77
2022-11-20T18:14:44.720Z,12.57
2022-11-20T18:17:15.845Z,17.70
2022-11-20T18:20:01.128Z,19.95
2022-11-20T18:22:36.233Z,17.13
2022-11-20T18:25:06.126Z,16.55
2022-11-20T18:27:35.040Z,16.67
2022-11-20T18:30:04.021Z,16.20
2022-11-20T18:32:33.358Z,17.65
2022-11-20T18:35:02.900Z,16.77
2022-11-20T18:37:33.699Z,13.02
2022-11-20T18:40:02.598Z,20.50
2022-11-20T18:42:49.773Z,19.08
2022-11-20T18:45:18.713Z,21.60
2022-11-20T18:47:47.605Z,21.05
2022-11-20T18:50:16.534Z,17.13
2022-11-20T18:52:49.059Z,17.98
2022-11-20T18:55:19.144Z,20.00
2022-11-20T18:57:48.007Z,17.77
2022-11-20T19:00:18.507Z,21.95
2022-11-20T19:02:47.849Z,19.70
2022-11-20T19:05:17.037Z,22.52
2022-11-20T19:07:45.977Z,22.52
2022-11-20T19:10:14.993Z,19.67
2022-11-20T19:12:43.859Z,21.02
2022-11-20T19:15:13.154Z,19.88
2022-11-20T19:17:42.081Z,19.60
2022-11-20T19:20:11.381Z,19.58
2022-11-20T19:22:40.396Z,19.73
2022-11-20T19:25:09.808Z,18.33
2022-11-20T19:27:38.703Z,17.45
2022-11-20T19:30:08.160Z,14.95
2022-11-20T19:32:37.123Z,17.38
2022-11-20T19:35:06.389Z,20.27
2022-11-20T19:37:36.731Z,17.25
2022-11-20T19:40:06.450Z,18.10
2022-11-20T19:42:35.358Z,22.63
2022-11-20T19:45:04.561Z,26.77
2022-11-20T19:48:00.997Z,17.67
2022-11-20T19:50:22.615Z,19.67
2022-11-20T19:52:55.839Z,16.02
2022-11-20T19:55:27.938Z,19.65
2022-11-20T19:57:57.594Z,14.32
2022-11-20T20:00:31.262Z,16.83
2022-11-20T20:03:01.947Z,17.15
2022-11-20T20:05:31.009Z,21.27
2022-11-20T20:07:59.938Z,18.25
2022-11-20T20:10:30.215Z,21.55
2022-11-20T20:12:59.285Z,16.58
2022-11-20T20:15:28.550Z,22.10
2022-11-20T20:17:57.535Z,20.52
2022-11-20T20:20:27.113Z,17.52
2022-11-20T20:22:55.980Z,18.15
2022-11-20T20:25:24.820Z,18.50
2022-11-20T20:27:55.093Z,18.50
2022-11-20T20:30:24.025Z,17.67
2022-11-20T20:32:56.324Z,15.65
2022-11-20T20:35:25.656Z,13.88
2022-11-20T20:37:54.632Z,16.73
2022-11-20T20:40:23.623Z,15.07
2022-11-20T20:42:52.613Z,14.38
2022-11-20T20:45:21.571Z,14.18
2022-11-20T20:47:50.416Z,12.63
2022-11-20T20:50:19.731Z,15.05
2022-11-20T20:52:48.852Z,14.82
2022-11-20T20:55:17.767Z,14.93
2022-11-20T20:57:46.747Z,14.30
2022-11-20T21:00:15.975Z,16.10
2022-11-20T21:02:44.892Z,11.80
2022-11-20T21:05:13.863Z,13.95
2022-11-20T21:08:02.574Z,15.13
2022-11-20T21:10:32.389Z,12.05
2022-11-20T21:13:01.301Z,15.70
2022-11-20T21:15:30.236Z,14.98
2022-11-20T21:17:59.127Z,13.93
2022-11-20T21:20:46.367Z,18.10
2022-11-20T21:23:15.589Z,18.25
2022-11-20T21:25:44.615Z,34.80
2022-11-20T21:28:18.026Z,14.02
2022-11-20T21:30:47.824Z,16.90
2022-11-20T21:33:16.835Z,17.45
2022-11-20T21:35:45.853Z,17.40
2022-11-20T21:38:14.711Z,23.73
2022-11-20T21:40:43.616Z,17.80
2022-11-20T21:43:12.860Z,25.02
2022-11-20T21:45:41.815Z,20.88
2022-11-20T21:48:10.691Z,29.52
2022-11-20T21:50:39.604Z,22.58
2022-11-20T21:53:08.468Z,23.45
2022-11-20T21:55:37.394Z,17.38
2022-11-20T21:58:06.367Z,25.50
2022-11-20T22:00:35.309Z,28.13
2022-11-20T22:03:04.200Z,20.00
2022-11-20T22:05:33.077Z,19.75
2022-11-20T22:08:01.911Z,19.17
2022-11-20T22:10:30.947Z,19.70
2022-11-20T22:13:19.771Z,17.45
2022-11-20T22:16:00.835Z,20.30
2022-11-20T22:18:30.159Z,21.95
2022-11-20T22:20:59.186Z,18.40
2022-11-20T22:23:28.066Z,22.20
2022-11-20T22:25:56.990Z,20.83
2022-11-20T22:28:25.942Z,20.80
2022-11-20T22:30:58.184Z,21.98
2022-11-20T22:33:28.264Z,23.00
2022-11-20T22:36:24.453Z,19.65
2022-11-20T22:38:53.980Z,20.63
2022-11-20T22:41:28.622Z,22.70
2022-11-20T22:43:59.768Z,20.42
2022-11-20T22:46:30.727Z,20.30
2022-11-20T22:49:04.738Z,23.98
2022-11-20T22:54:06.964Z,17.27
2022-11-20T22:56:36.290Z,25.40
2022-11-20T22:59:05.491Z,19.65
2022-11-20T23:01:36.485Z,22.05
2022-11-20T23:04:08.007Z,23.17
2022-11-20T23:06:37.059Z,24.80
2022-11-20T23:09:08.726Z,31.30
2022-11-20T23:11:38.106Z,25.63
2022-11-20T23:14:12.409Z,22.73
2022-11-20T23:16:41.656Z,25.30
2022-11-20T23:19:13.372Z,22.65
2022-11-20T23:21:43.754Z,21.63
2022-11-20T23:24:13.072Z,27.77
2022-11-20T23:26:43.068Z,24.17
2022-11-20T23:29:12.138Z,23.58
2022-11-20T23:31:41.109Z,30.17
2022-11-20T23:34:10.399Z,22.58
2022-11-20T23:36:39.345Z,30.88
2022-11-20T23:39:09.720Z,26.52
2022-11-20T23:41:38.553Z,22.25
2022-11-20T23:44:07.453Z,26.25
2022-11-20T23:46:36.378Z,30.90
2022-11-20T23:49:05.490Z,26.25
2022-11-20T23:51:34.561Z,27.42
2022-11-20T23:54:04.877Z,65.10
2022-11-20T23:56:33.957Z,23.23
2022-11-20T23:59:02.916Z,29.05
